KSVC  Grant County Airport

Add Bookmark

Silver City, New Mexico, United States

Status Useage IATA
Operational Public SVC
Latitude Longitude
32° 38' 11" N 108° 9' 22" W
32.636547 -108.156385
Local (DST -6) UTC (GMT -7)
Jan 29, 2015 11:20 Jan 30, 2015 06:20
Sunrise-Sunset Local UTC
Begin Civil Twilight 06:41 13:41
Sunrise 07:07 14:07
Sunset 05:44 00:44
End Civil Twilight 06:10 01:10

Current Weather

METAR Observed MVFR
KSVC 300555Z AUTO 11009KT 7SM -RA BKN017 OVC023 05/05 A3034 Fri, Jan 30, 2015 @ 05:55 UTC
(25 Minutes ago)
Marginal Visual Flight Rules
Wind Visibility Clouds Conditions
110° at 9 knots (10 mph) 7 statute miles
  • Broken at 1,700' AGL
  • Overcast at 2,300' AGL
  • Light Rain
Temperatures Readings Precipitation
Current Temp 5°C (41°F)
Dewpoint 5°C (41°F)
Humidity 100%
Altimeter 30.34"Hg
Sea Level Pressure 1027mb
Field Elevation 5443.01'
Current Rain 0.02"

Additional weather within a 50nm radius of KSVC

Map ICAO Location
KDMN 31.5nm S (135°)
KLSB 32.6nm S (236°)

24 Hour Weather History

Loading
-

24 Hour Weather Graphs

Loading
-

CheckWX.com is intended as a tool to help pilots better visualize weather data. It is not intended as a substitute for an official weather briefing obtained from a Flight Service Station. CheckWX.com does not meet the FAA requirements for an official pre-flight weather briefing. Therefore, it's important that pilots still call and obtain an official FSS pre-flight weather briefing.